Time;durP1;ratioP1;P1;durP2;ratioP2;P2;SDS_P1;SDS_P2;PMS_P1;PMS_P2;Temp;Humidity;BMP_temperature;BMP_pressure;BME280_temperature;BME280_humidity;BME280_pressure;Samples;Min_cycle;Max_cycle;Signal;HPM_P1;HPM_P2
2022/01/10 00:00:51;;;;;;;26.88;19.88;;;;;;;;;;5124346;27;20458;-51
2022/01/10 00:03:17;;;;;;;28.15;21.20;;;;;;;;;;5123942;27;20055;-53
2022/01/10 00:05:42;;;;;;;26.58;23.30;;;;;;;;;;5126376;27;20431;-53
2022/01/10 00:08:08;;;;;;;27.88;21.20;;;;;;;;;;5126911;27;20509;-51
2022/01/10 00:10:33;;;;;;;24.75;22.08;;;;;;;;;;5123942;27;20390;-54
2022/01/10 00:12:59;;;;;;;25.88;18.35;;;;;;;;;;5124980;27;20129;-52
2022/01/10 00:15:24;;;;;;;24.50;19.15;;;;;;;;;;5125033;27;20050;-50
2022/01/10 00:17:50;;;;;;;27.35;18.20;;;;;;;;;;5125458;27;20130;-53
2022/01/10 00:20:16;;;;;;;25.50;17.00;;;;;;;;;;5123868;27;20080;-51
2022/01/10 00:22:47;;;;;;;23.05;13.82;;;;;;;;;;5125507;27;20521;-52
2022/01/10 00:25:15;;;;;;;32.47;16.42;;;;;;;;;;5124077;27;20027;-50
2022/01/10 00:27:40;;;;;;;20.73;15.50;;;;;;;;;;5124915;27;20031;-54
2022/01/10 00:30:07;;;;;;;18.77;12.25;;;;;;;;;;5124076;27;20437;-52
2022/01/10 00:32:32;;;;;;;17.67;11.48;;;;;;;;;;5122738;27;20027;-54
2022/01/10 00:34:57;;;;;;;19.50;11.57;;;;;;;;;;5125441;27;20091;-50
2022/01/10 00:37:23;;;;;;;15.15;11.05;;;;;;;;;;5125339;27;20902;-49
2022/01/10 00:39:49;;;;;;;18.58;10.57;;;;;;;;;;5125378;27;20049;-47
2022/01/10 00:42:15;;;;;;;18.33;13.93;;;;;;;;;;5124480;27;20482;-51
2022/01/10 00:44:46;;;;;;;16.25;13.38;;;;;;;;;;5125672;27;20034;-54
2022/01/10 00:47:11;;;;;;;21.63;15.07;;;;;;;;;;5125311;27;20049;-52
2022/01/10 00:49:36;;;;;;;18.77;16.27;;;;;;;;;;5124574;27;20028;-51
2022/01/10 00:52:02;;;;;;;16.92;15.10;;;;;;;;;;5123409;27;20066;-51
2022/01/10 00:54:28;;;;;;;20.52;14.75;;;;;;;;;;5123863;27;20030;-51
2022/01/10 00:56:53;;;;;;;25.27;15.30;;;;;;;;;;5125136;27;20026;-51
2022/01/10 00:59:18;;;;;;;17.40;14.65;;;;;;;;;;5123695;27;20114;-51
2022/01/10 01:01:44;;;;;;;20.33;15.98;;;;;;;;;;5124645;27;20065;-50
2022/01/10 01:04:09;;;;;;;28.13;19.70;;;;;;;;;;5124409;27;20113;-52
2022/01/10 01:06:34;;;;;;;33.95;22.65;;;;;;;;;;5124667;27;20397;-48
2022/01/10 01:09:05;;;;;;;38.92;24.45;;;;;;;;;;5124752;27;20100;-49
2022/01/10 01:14:11;;;;;;;29.42;20.88;;;;;;;;;;5123379;27;20019;-52
2022/01/10 01:24:19;;;;;;;16.98;9.50;;;;;;;;;;5094364;27;20122;-53
2022/01/10 01:26:46;;;;;;;8.57;5.65;;;;;;;;;;5123221;27;20109;-51
2022/01/10 01:29:13;;;;;;;8.05;5.00;;;;;;;;;;5124041;27;20470;-52
2022/01/10 01:31:38;;;;;;;11.60;3.90;;;;;;;;;;5121515;27;20019;-54
2022/01/10 01:34:04;;;;;;;6.45;4.28;;;;;;;;;;5124282;27;20102;-51
2022/01/10 01:36:30;;;;;;;10.95;4.85;;;;;;;;;;5121440;28;20027;-50
2022/01/10 01:38:56;;;;;;;9.73;4.55;;;;;;;;;;5123565;28;20695;-53
2022/01/10 01:41:42;;;;;;;25.23;10.70;;;;;;;;;;5123835;28;20492;-48
2022/01/10 01:44:07;;;;;;;24.02;12.60;;;;;;;;;;5123786;28;20490;-52
2022/01/10 01:46:33;;;;;;;30.20;10.80;;;;;;;;;;5123786;28;20031;-53
2022/01/10 01:48:59;;;;;;;19.20;10.13;;;;;;;;;;5123955;28;20028;-51
2022/01/10 01:51:24;;;;;;;12.45;5.78;;;;;;;;;;5123009;28;20022;-52
2022/01/10 01:53:50;;;;;;;6.05;2.72;;;;;;;;;;5123896;28;20131;-51
2022/01/10 01:56:17;;;;;;;4.03;2.00;;;;;;;;;;5123946;28;20030;-50
2022/01/10 01:58:43;;;;;;;7.72;2.20;;;;;;;;;;5123587;28;20011;-49
2022/01/10 02:01:09;;;;;;;9.68;2.80;;;;;;;;;;5124221;28;20099;-52
2022/01/10 02:03:37;;;;;;;5.10;2.72;;;;;;;;;;5123947;28;20065;-50
2022/01/10 02:06:02;;;;;;;6.18;2.30;;;;;;;;;;5124921;27;20019;-51
2022/01/10 02:08:28;;;;;;;10.70;4.57;;;;;;;;;;5127836;27;20046;-51
2022/01/10 02:10:53;;;;;;;5.30;2.58;;;;;;;;;;5127030;27;20015;-52
2022/01/10 02:13:18;;;;;;;7.60;2.20;;;;;;;;;;5126214;27;20334;-53
2022/01/10 02:18:13;;;;;;;8.93;2.58;;;;;;;;;;5127967;27;20546;-54
2022/01/10 02:20:39;;;;;;;4.75;1.73;;;;;;;;;;5127805;27;20074;-50
2022/01/10 02:23:04;;;;;;;14.95;2.75;;;;;;;;;;5128971;27;20066;-50
2022/01/10 02:25:29;;;;;;;13.40;3.55;;;;;;;;;;5127829;27;20019;-49
2022/01/10 02:27:56;;;;;;;8.63;3.50;;;;;;;;;;5127693;27;20510;-51
2022/01/10 02:30:21;;;;;;;10.02;3.17;;;;;;;;;;5128064;27;20019;-52
2022/01/10 02:32:47;;;;;;;7.50;3.30;;;;;;;;;;5127904;27;20058;-52
2022/01/10 02:35:23;;;;;;;4.93;2.42;;;;;;;;;;5126640;27;20049;-53
2022/01/10 02:37:51;;;;;;;6.35;2.97;;;;;;;;;;5125475;27;20019;-52
2022/01/10 02:40:19;;;;;;;6.25;3.20;;;;;;;;;;5127627;27;20027;-52
2022/01/10 02:42:44;;;;;;;7.85;4.38;;;;;;;;;;5127453;27;20034;-53
2022/01/10 02:45:09;;;;;;;11.27;6.18;;;;;;;;;;5126958;27;20023;-51
2022/01/10 02:47:36;;;;;;;12.68;8.23;;;;;;;;;;5128114;27;20031;-53
2022/01/10 02:50:01;;;;;;;11.98;6.72;;;;;;;;;;5127436;27;20026;-54
2022/01/10 02:52:27;;;;;;;11.45;6.32;;;;;;;;;;5124327;27;20027;-50
2022/01/10 02:54:53;;;;;;;10.93;7.70;;;;;;;;;;5127344;27;20030;-53
2022/01/10 02:57:18;;;;;;;17.00;10.13;;;;;;;;;;5126705;27;20095;-53
2022/01/10 02:59:44;;;;;;;10.20;7.50;;;;;;;;;;5127382;27;20031;-51
2022/01/10 03:02:10;;;;;;;19.85;7.78;;;;;;;;;;5127370;27;20027;-51
2022/01/10 03:04:36;;;;;;;13.80;6.18;;;;;;;;;;5127199;27;20030;-50
2022/01/10 03:07:01;;;;;;;10.40;3.47;;;;;;;;;;5126417;27;20027;-54
2022/01/10 03:09:26;;;;;;;6.75;3.80;;;;;;;;;;5126370;27;20146;-49
2022/01/10 03:11:52;;;;;;;6.43;3.17;;;;;;;;;;5124805;27;20015;-51
2022/01/10 03:14:18;;;;;;;13.70;4.28;;;;;;;;;;5126655;27;20023;-51
2022/01/10 03:16:43;;;;;;;8.80;4.30;;;;;;;;;;5123092;27;20377;-51
2022/01/10 03:19:09;;;;;;;10.80;4.05;;;;;;;;;;5126821;27;20076;-50
2022/01/10 03:21:35;;;;;;;5.32;3.03;;;;;;;;;;5126076;27;20410;-48
2022/01/10 03:24:01;;;;;;;11.73;4.45;;;;;;;;;;5125701;27;20015;-53
2022/01/10 03:26:27;;;;;;;10.02;4.45;;;;;;;;;;5125613;27;20019;-49
2022/01/10 03:28:52;;;;;;;8.70;4.38;;;;;;;;;;5126946;27;20050;-50
2022/01/10 03:31:18;;;;;;;4.90;3.25;;;;;;;;;;5124159;27;20090;-52
2022/01/10 03:33:44;;;;;;;8.57;4.10;;;;;;;;;;5124831;27;20024;-51
2022/01/10 03:36:09;;;;;;;6.65;3.58;;;;;;;;;;5126840;27;20025;-49
2022/01/10 03:38:34;;;;;;;12.50;3.65;;;;;;;;;;5126985;27;20031;-48
2022/01/10 03:41:00;;;;;;;5.80;3.20;;;;;;;;;;5126392;27;20470;-50
2022/01/10 03:43:25;;;;;;;9.02;4.03;;;;;;;;;;5126489;27;20744;-52
2022/01/10 03:45:51;;;;;;;9.40;4.88;;;;;;;;;;5126086;27;20098;-52
2022/01/10 03:48:16;;;;;;;21.25;5.40;;;;;;;;;;5126336;27;20398;-51
2022/01/10 03:50:41;;;;;;;8.93;4.22;;;;;;;;;;5124514;27;20015;-51
2022/01/10 03:53:07;;;;;;;15.65;6.07;;;;;;;;;;5125677;27;20023;-52
2022/01/10 03:55:32;;;;;;;16.00;7.22;;;;;;;;;;5124380;27;20023;-50
2022/01/10 03:57:58;;;;;;;5.18;3.53;;;;;;;;;;5125703;27;20497;-52
2022/01/10 04:00:23;;;;;;;5.38;3.30;;;;;;;;;;5125048;27;20031;-53
2022/01/10 04:02:57;;;;;;;6.20;3.03;;;;;;;;;;5122057;27;20023;-50
2022/01/10 04:05:23;;;;;;;9.10;4.68;;;;;;;;;;5122671;27;20027;-48
2022/01/10 04:07:48;;;;;;;5.13;3.05;;;;;;;;;;5125455;27;20027;-48
2022/01/10 04:10:14;;;;;;;16.35;5.25;;;;;;;;;;5125064;27;20382;-51
2022/01/10 04:12:39;;;;;;;10.75;4.90;;;;;;;;;;5123182;27;20164;-51
2022/01/10 04:15:05;;;;;;;12.95;6.95;;;;;;;;;;5121830;27;20020;-50
2022/01/10 04:17:30;;;;;;;17.17;7.38;;;;;;;;;;5123785;27;20156;-52
2022/01/10 04:19:56;;;;;;;14.13;8.57;;;;;;;;;;5119189;27;20131;-51
2022/01/10 04:22:21;;;;;;;17.75;11.63;;;;;;;;;;5122570;27;20052;-49
2022/01/10 04:24:47;;;;;;;27.88;16.42;;;;;;;;;;5124622;27;20488;-53
2022/01/10 04:27:12;;;;;;;26.92;16.10;;;;;;;;;;5122970;27;20812;-50
2022/01/10 04:29:37;;;;;;;27.85;14.18;;;;;;;;;;5125007;27;20019;-53
2022/01/10 04:32:03;;;;;;;13.23;9.82;;;;;;;;;;5123481;27;20042;-52
2022/01/10 04:34:29;;;;;;;16.67;7.43;;;;;;;;;;5125075;27;20075;-52
2022/01/10 04:36:54;;;;;;;10.35;4.70;;;;;;;;;;5123790;27;20030;-51
2022/01/10 04:39:19;;;;;;;19.38;4.75;;;;;;;;;;5125039;27;20481;-52
2022/01/10 04:41:45;;;;;;;6.95;5.03;;;;;;;;;;5125524;27;20669;-50
2022/01/10 04:44:10;;;;;;;16.13;5.18;;;;;;;;;;5125575;27;20529;-52
2022/01/10 04:46:36;;;;;;;18.33;8.00;;;;;;;;;;5123315;27;20027;-52
2022/01/10 04:49:02;;;;;;;17.10;7.03;;;;;;;;;;5124063;27;20106;-52
2022/01/10 04:51:29;;;;;;;11.45;5.55;;;;;;;;;;5124472;27;20182;-51
2022/01/10 04:53:55;;;;;;;21.58;6.00;;;;;;;;;;5124920;27;20133;-53
2022/01/10 04:56:20;;;;;;;9.48;2.85;;;;;;;;;;5125166;27;20053;-51
2022/01/10 04:58:46;;;;;;;16.15;3.85;;;;;;;;;;5123668;27;20805;-53
2022/01/10 05:01:12;;;;;;;5.55;3.30;;;;;;;;;;5124445;27;20480;-52
2022/01/10 05:03:37;;;;;;;7.50;3.08;;;;;;;;;;5123199;27;20473;-49
2022/01/10 05:06:03;;;;;;;8.70;2.75;;;;;;;;;;5123417;27;20562;-54
2022/01/10 05:08:29;;;;;;;7.28;2.97;;;;;;;;;;5124974;27;20015;-50
2022/01/10 05:10:54;;;;;;;8.82;3.80;;;;;;;;;;5122197;27;20129;-50
2022/01/10 05:13:20;;;;;;;14.20;4.75;;;;;;;;;;5125149;27;20074;-51
2022/01/10 05:15:47;;;;;;;8.02;3.70;;;;;;;;;;5124630;27;20099;-53
2022/01/10 05:18:12;;;;;;;15.20;3.28;;;;;;;;;;5124919;27;20464;-53
2022/01/10 05:20:38;;;;;;;5.00;2.13;;;;;;;;;;5123922;27;20078;-51
2022/01/10 05:23:03;;;;;;;11.43;3.47;;;;;;;;;;5124960;27;20042;-52
2022/01/10 05:25:28;;;;;;;9.05;3.35;;;;;;;;;;5120775;27;20620;-51
2022/01/10 05:27:54;;;;;;;12.98;3.78;;;;;;;;;;5125081;27;20409;-54
2022/01/10 05:30:19;;;;;;;4.03;2.25;;;;;;;;;;5122719;27;20054;-49
2022/01/10 05:32:44;;;;;;;10.98;3.03;;;;;;;;;;5123040;27;20072;-52
2022/01/10 05:35:10;;;;;;;5.70;3.05;;;;;;;;;;5124596;27;20090;-52
2022/01/10 05:37:35;;;;;;;5.93;2.47;;;;;;;;;;5124714;28;20394;-52
2022/01/10 05:40:01;;;;;;;2.20;1.52;;;;;;;;;;5123686;27;20042;-53
2022/01/10 05:42:26;;;;;;;6.68;3.58;;;;;;;;;;5124259;28;20031;-51
2022/01/10 05:44:51;;;;;;;10.00;3.45;;;;;;;;;;5124791;28;20027;-53
2022/01/10 05:47:17;;;;;;;8.60;3.70;;;;;;;;;;5124186;28;20098;-53
2022/01/10 05:49:47;;;;;;;8.65;3.88;;;;;;;;;;5124461;28;20518;-52
2022/01/10 05:52:12;;;;;;;7.53;4.45;;;;;;;;;;5122075;28;20064;-49
2022/01/10 05:54:38;;;;;;;20.13;7.32;;;;;;;;;;5105783;28;20031;-53
2022/01/10 05:57:04;;;;;;;9.57;6.20;;;;;;;;;;5122817;28;20478;-52
2022/01/10 05:59:31;;;;;;;11.02;6.65;;;;;;;;;;5123927;28;20054;-51
2022/01/10 06:01:56;;;;;;;9.50;5.38;;;;;;;;;;5122441;28;20135;-51
2022/01/10 06:04:22;;;;;;;8.88;4.35;;;;;;;;;;5122847;27;20470;-49
2022/01/10 06:06:47;;;;;;;8.85;4.35;;;;;;;;;;5123106;28;20020;-52
2022/01/10 06:09:12;;;;;;;10.10;5.07;;;;;;;;;;5123206;28;20019;-51
2022/01/10 06:11:40;;;;;;;15.00;6.80;;;;;;;;;;5121373;27;20054;-51
2022/01/10 06:14:05;;;;;;;11.88;7.60;;;;;;;;;;5124086;28;20015;-51
2022/01/10 06:16:30;;;;;;;29.83;13.25;;;;;;;;;;5123881;27;20038;-52
2022/01/10 06:18:56;;;;;;;19.80;11.15;;;;;;;;;;5123561;28;20018;-47
2022/01/10 06:21:21;;;;;;;18.13;10.05;;;;;;;;;;5122747;28;20155;-49
2022/01/10 06:23:46;;;;;;;18.02;9.75;;;;;;;;;;5124040;28;20027;-50
2022/01/10 06:26:11;;;;;;;26.48;10.63;;;;;;;;;;5123620;27;20435;-50
2022/01/10 06:28:37;;;;;;;18.58;9.32;;;;;;;;;;5121292;28;20394;-52
2022/01/10 06:31:02;;;;;;;22.30;15.07;;;;;;;;;;5121568;28;20019;-51
2022/01/10 06:33:27;;;;;;;27.88;12.63;;;;;;;;;;5120850;28;20454;-54
2022/01/10 06:35:53;;;;;;;17.63;8.20;;;;;;;;;;5122486;28;20023;-51
2022/01/10 06:38:18;;;;;;;19.63;5.85;;;;;;;;;;5125190;28;20472;-48
2022/01/10 06:40:43;;;;;;;14.70;4.32;;;;;;;;;;5124871;28;20031;-51
2022/01/10 06:43:09;;;;;;;13.02;6.43;;;;;;;;;;5126930;28;20505;-51
2022/01/10 06:45:34;;;;;;;9.57;6.38;;;;;;;;;;5126587;28;20058;-53
2022/01/10 06:48:00;;;;;;;17.80;8.70;;;;;;;;;;5126008;28;20062;-50
2022/01/10 06:50:25;;;;;;;14.48;9.40;;;;;;;;;;5125073;28;20084;-51
2022/01/10 06:52:53;;;;;;;18.27;7.60;;;;;;;;;;5128620;27;20019;-53
2022/01/10 06:55:19;;;;;;;8.75;6.13;;;;;;;;;;5130727;27;20451;-52
2022/01/10 06:57:44;;;;;;;10.20;6.90;;;;;;;;;;5129902;27;20019;-53
2022/01/10 07:00:10;;;;;;;13.82;8.43;;;;;;;;;;5130837;27;20015;-50
2022/01/10 07:02:35;;;;;;;16.42;11.10;;;;;;;;;;5130325;27;20027;-52
2022/01/10 07:05:01;;;;;;;18.23;10.65;;;;;;;;;;5128893;27;20120;-50
2022/01/10 07:07:26;;;;;;;24.63;13.68;;;;;;;;;;5129220;27;20120;-53
2022/01/10 07:09:51;;;;;;;36.00;24.60;;;;;;;;;;5128167;27;20027;-51
2022/01/10 07:12:16;;;;;;;22.80;17.92;;;;;;;;;;5128442;27;20217;-49
2022/01/10 07:14:42;;;;;;;20.80;13.23;;;;;;;;;;5129425;27;20699;-51
2022/01/10 07:17:07;;;;;;;17.42;12.48;;;;;;;;;;5129944;27;20027;-49
2022/01/10 07:19:32;;;;;;;19.88;12.82;;;;;;;;;;5127914;27;20027;-52
2022/01/10 07:21:58;;;;;;;15.38;12.15;;;;;;;;;;5130679;27;20141;-47
2022/01/10 07:24:23;;;;;;;11.40;9.98;;;;;;;;;;5129929;27;20436;-53
2022/01/10 07:26:48;;;;;;;21.55;13.70;;;;;;;;;;5129488;27;20047;-60
2022/01/10 07:29:14;;;;;;;35.17;18.52;;;;;;;;;;5128924;27;20053;-68
2022/01/10 07:31:40;;;;;;;38.90;17.70;;;;;;;;;;5129475;27;20427;-65
2022/01/10 07:34:05;;;;;;;26.05;17.40;;;;;;;;;;5129185;27;20023;-60
2022/01/10 07:36:31;;;;;;;15.63;11.68;;;;;;;;;;5129373;27;20616;-65
2022/01/10 07:38:56;;;;;;;28.05;19.60;;;;;;;;;;5129214;27;20102;-63
2022/01/10 07:41:22;;;;;;;36.05;23.50;;;;;;;;;;5128524;27;20051;-66
2022/01/10 07:43:47;;;;;;;29.17;19.30;;;;;;;;;;5129019;27;20110;-72
2022/01/10 07:46:12;;;;;;;22.13;16.52;;;;;;;;;;5128048;27;20492;-62
2022/01/10 07:48:39;;;;;;;37.20;22.02;;;;;;;;;;5128869;27;20126;-62
2022/01/10 07:51:08;;;;;;;23.42;14.77;;;;;;;;;;5126455;27;20015;-63
2022/01/10 07:53:34;;;;;;;36.45;23.60;;;;;;;;;;5128634;27;20022;-63
2022/01/10 07:55:59;;;;;;;44.97;30.00;;;;;;;;;;5128670;27;20023;-63
2022/01/10 07:58:25;;;;;;;38.17;28.42;;;;;;;;;;5110059;27;20023;-63
2022/01/10 08:00:50;;;;;;;43.28;27.67;;;;;;;;;;5127285;27;20026;-63
2022/01/10 08:03:15;;;;;;;33.50;21.00;;;;;;;;;;5128135;27;20027;-63
2022/01/10 08:05:41;;;;;;;19.23;13.15;;;;;;;;;;5126223;27;20019;-63
2022/01/10 08:08:06;;;;;;;17.30;12.18;;;;;;;;;;5128901;27;20034;-63
2022/01/10 08:10:31;;;;;;;16.20;10.60;;;;;;;;;;5128910;27;20023;-63
2022/01/10 08:12:57;;;;;;;15.25;7.90;;;;;;;;;;5127654;27;20409;-63
2022/01/10 08:15:23;;;;;;;19.08;7.70;;;;;;;;;;5128369;27;20027;-62
2022/01/10 08:17:48;;;;;;;22.73;9.25;;;;;;;;;;5128365;27;20071;-63
2022/01/10 08:20:14;;;;;;;12.25;6.35;;;;;;;;;;5125235;27;20485;-63
2022/01/10 08:22:39;;;;;;;21.63;9.32;;;;;;;;;;5124904;27;20559;-70
2022/01/10 08:25:05;;;;;;;14.23;6.75;;;;;;;;;;5125601;27;20062;-71
2022/01/10 08:27:30;;;;;;;9.07;5.40;;;;;;;;;;5125563;27;20042;-69
2022/01/10 08:29:55;;;;;;;9.85;5.80;;;;;;;;;;5125644;27;20072;-70
2022/01/10 08:32:21;;;;;;;8.05;3.15;;;;;;;;;;5125583;27;20461;-63
2022/01/10 08:34:46;;;;;;;15.68;6.00;;;;;;;;;;5125785;27;20058;-63
2022/01/10 08:37:12;;;;;;;13.93;5.47;;;;;;;;;;5125474;27;20129;-62
2022/01/10 08:39:38;;;;;;;31.70;8.07;;;;;;;;;;5125847;27;20031;-63
2022/01/10 08:42:04;;;;;;;9.75;4.63;;;;;;;;;;5125562;27;20037;-63
2022/01/10 08:44:29;;;;;;;9.77;4.50;;;;;;;;;;5124252;27;20047;-63
2022/01/10 08:46:54;;;;;;;18.92;8.80;;;;;;;;;;5124479;27;20126;-63
2022/01/10 08:49:20;;;;;;;23.27;7.70;;;;;;;;;;5124990;27;20019;-63
2022/01/10 08:51:46;;;;;;;9.45;6.85;;;;;;;;;;5126048;27;20030;-60
2022/01/10 08:54:11;;;;;;;27.60;10.98;;;;;;;;;;5125352;27;20055;-61
2022/01/10 08:56:37;;;;;;;15.27;7.55;;;;;;;;;;5125059;27;20042;-61
2022/01/10 08:59:03;;;;;;;12.35;7.15;;;;;;;;;;5123398;27;20019;-60
2022/01/10 09:01:30;;;;;;;19.63;7.55;;;;;;;;;;5124449;27;20022;-60
2022/01/10 09:03:55;;;;;;;14.65;8.68;;;;;;;;;;5125068;27;20023;-60
2022/01/10 09:06:21;;;;;;;15.52;7.78;;;;;;;;;;5123450;27;20521;-60
2022/01/10 09:08:47;;;;;;;25.75;13.65;;;;;;;;;;5123567;27;20027;-60
2022/01/10 09:11:13;;;;;;;13.18;8.88;;;;;;;;;;5125222;27;20568;-61
2022/01/10 09:13:38;;;;;;;19.67;10.02;;;;;;;;;;5125045;27;20019;-62
2022/01/10 09:16:04;;;;;;;16.60;8.93;;;;;;;;;;5123713;27;20023;-63
2022/01/10 09:18:30;;;;;;;15.60;6.50;;;;;;;;;;5124624;27;20037;-63
2022/01/10 09:20:55;;;;;;;30.05;10.05;;;;;;;;;;5124544;27;20082;-63
2022/01/10 09:23:21;;;;;;;19.38;9.52;;;;;;;;;;5124669;27;20031;-63
2022/01/10 09:25:46;;;;;;;19.17;8.77;;;;;;;;;;5124455;27;20390;-62
2022/01/10 09:28:12;;;;;;;7.22;5.05;;;;;;;;;;5124101;27;20494;-62
2022/01/10 09:30:37;;;;;;;7.88;4.93;;;;;;;;;;5124186;27;20302;-62
2022/01/10 09:33:02;;;;;;;15.10;7.50;;;;;;;;;;5124037;27;20402;-63
2022/01/10 09:35:28;;;;;;;14.70;7.97;;;;;;;;;;5124173;27;20530;-63
2022/01/10 09:37:53;;;;;;;15.98;8.32;;;;;;;;;;5124388;27;20477;-62
2022/01/10 09:40:19;;;;;;;20.60;8.30;;;;;;;;;;5122405;28;20026;-63
2022/01/10 09:42:44;;;;;;;22.52;8.20;;;;;;;;;;5124737;28;20552;-62
2022/01/10 09:45:10;;;;;;;26.23;8.50;;;;;;;;;;5125607;28;20087;-62
2022/01/10 09:47:35;;;;;;;17.17;5.63;;;;;;;;;;5125276;28;20472;-63
2022/01/10 09:50:01;;;;;;;8.52;5.75;;;;;;;;;;5123995;28;20265;-62
2022/01/10 09:52:26;;;;;;;13.90;6.53;;;;;;;;;;5123480;27;20111;-62
2022/01/10 09:54:53;;;;;;;10.40;4.93;;;;;;;;;;5121173;28;20027;-62
2022/01/10 09:57:19;;;;;;;8.55;4.13;;;;;;;;;;5123391;28;20024;-62
2022/01/10 09:59:44;;;;;;;15.27;6.78;;;;;;;;;;5124135;27;20461;-62
2022/01/10 10:02:10;;;;;;;24.00;16.45;;;;;;;;;;5125510;27;20489;-62
2022/01/10 10:04:36;;;;;;;11.00;5.88;;;;;;;;;;5125653;28;20019;-62
2022/01/10 10:07:02;;;;;;;5.18;4.00;;;;;;;;;;5124657;28;20035;-63
2022/01/10 10:09:29;;;;;;;7.53;3.03;;;;;;;;;;5125097;28;20434;-63
2022/01/10 10:11:55;;;;;;;11.38;7.57;;;;;;;;;;5123463;28;20039;-62
2022/01/10 10:14:22;;;;;;;18.10;15.25;;;;;;;;;;5124519;28;20062;-62
2022/01/10 10:16:51;;;;;;;27.05;19.75;;;;;;;;;;5123623;27;20197;-62
2022/01/10 10:19:19;;;;;;;21.77;14.95;;;;;;;;;;5123337;28;20512;-63
2022/01/10 10:21:44;;;;;;;11.40;6.28;;;;;;;;;;5124448;28;20146;-62
2022/01/10 10:24:10;;;;;;;17.83;6.35;;;;;;;;;;5123617;28;20106;-62
2022/01/10 10:26:35;;;;;;;21.42;8.40;;;;;;;;;;5125440;27;20118;-63
2022/01/10 10:29:01;;;;;;;8.82;6.32;;;;;;;;;;5128680;27;20019;-62
2022/01/10 10:31:27;;;;;;;10.75;6.18;;;;;;;;;;5129084;27;20012;-63
2022/01/10 10:33:53;;;;;;;13.82;8.95;;;;;;;;;;5127115;27;20034;-63
2022/01/10 10:36:18;;;;;;;7.68;4.65;;;;;;;;;;5127854;27;20015;-62
2022/01/10 10:38:44;;;;;;;8.23;4.65;;;;;;;;;;5127815;27;20106;-62
2022/01/10 10:41:10;;;;;;;24.45;5.47;;;;;;;;;;5128389;27;20548;-63
2022/01/10 10:43:36;;;;;;;19.45;11.32;;;;;;;;;;5128252;27;20027;-63
2022/01/10 10:46:02;;;;;;;36.85;7.15;;;;;;;;;;5126798;27;20718;-63
2022/01/10 10:48:29;;;;;;;8.00;6.95;;;;;;;;;;5128315;27;20035;-63
2022/01/10 10:50:57;;;;;;;14.10;7.95;;;;;;;;;;5128692;27;20588;-63
2022/01/10 10:53:25;;;;;;;14.07;6.85;;;;;;;;;;5127374;27;20023;-63
2022/01/10 10:55:51;;;;;;;5.80;4.00;;;;;;;;;;5127474;27;20023;-63
2022/01/10 10:58:16;;;;;;;16.35;5.18;;;;;;;;;;5127968;27;20149;-58
2022/01/10 11:00:41;;;;;;;7.22;4.60;;;;;;;;;;5127950;27;20810;-64
2022/01/10 11:03:09;;;;;;;7.78;2.90;;;;;;;;;;5127701;27;20031;-61
2022/01/10 11:05:34;;;;;;;15.82;6.00;;;;;;;;;;5127563;27;20100;-61
2022/01/10 11:08:00;;;;;;;5.70;3.90;;;;;;;;;;5126627;27;20118;-62
2022/01/10 11:10:25;;;;;;;10.27;3.72;;;;;;;;;;5127020;27;20050;-64
2022/01/10 11:12:58;;;;;;;21.73;8.68;;;;;;;;;;5126701;27;20097;-63
2022/01/10 11:15:24;;;;;;;12.15;6.45;;;;;;;;;;5125122;27;20028;-62
2022/01/10 11:17:50;;;;;;;16.38;8.07;;;;;;;;;;5127516;27;20019;-62
2022/01/10 11:20:17;;;;;;;11.23;6.05;;;;;;;;;;5126617;27;20122;-60
2022/01/10 11:22:50;;;;;;;5.30;3.70;;;;;;;;;;5125753;27;20034;-60
2022/01/10 11:25:20;;;;;;;5.20;2.88;;;;;;;;;;5127388;27;20049;-68
2022/01/10 11:27:46;;;;;;;15.75;5.97;;;;;;;;;;5125273;27;20057;-64
2022/01/10 11:30:29;;;;;;;6.88;5.15;;;;;;;;;;5126783;27;20490;-66
2022/01/10 11:33:07;;;;;;;18.98;9.32;;;;;;;;;;5127108;27;20059;-70
2022/01/10 11:35:48;;;;;;;41.15;28.35;;;;;;;;;;5109900;27;20446;-70
2022/01/10 11:38:32;;;;;;;35.13;20.98;;;;;;;;;;5128994;27;20050;-70
2022/01/10 11:41:03;;;;;;;20.75;15.25;;;;;;;;;;5127007;27;20023;-70
2022/01/10 11:43:28;;;;;;;;;;;;;;;;;;5126758;27;20486;-71
2022/01/10 11:46:14;;;;;;;27.13;15.13;;;;;;;;;;5127690;27;19999;-69
2022/01/10 11:48:42;;;;;;;23.55;16.10;;;;;;;;;;5125719;27;20274;-72
2022/01/10 11:51:18;;;;;;;46.03;16.50;;;;;;;;;;5128301;27;20091;-71
2022/01/10 11:53:45;;;;;;;14.38;7.47;;;;;;;;;;5123886;27;20010;-72
2022/01/10 11:56:20;;;;;;;14.55;4.55;;;;;;;;;;5122266;27;20474;-72
2022/01/10 11:59:04;;;;;;;26.35;5.18;;;;;;;;;;5121643;27;20023;-73
2022/01/10 12:01:34;;;;;;;3.65;2.75;;;;;;;;;;5123711;27;20023;-73
2022/01/10 12:03:59;;;;;;;7.50;3.95;;;;;;;;;;5126536;27;20490;-73
2022/01/10 12:06:25;;;;;;;4.90;3.20;;;;;;;;;;5128438;27;20042;-73
2022/01/10 12:08:53;;;;;;;10.32;6.03;;;;;;;;;;5127005;27;20023;-73
2022/01/10 12:11:19;;;;;;;5.78;3.70;;;;;;;;;;5126220;27;20474;-73
2022/01/10 12:13:47;;;;;;;4.78;2.72;;;;;;;;;;5126105;27;20058;-73
2022/01/10 12:16:13;;;;;;;5.03;3.10;;;;;;;;;;5127594;27;20026;-73
2022/01/10 12:18:38;;;;;;;7.78;3.92;;;;;;;;;;5109392;27;20035;-73
2022/01/10 12:21:03;;;;;;;6.32;4.43;;;;;;;;;;5127849;27;20506;-73
2022/01/10 12:23:29;;;;;;;5.25;4.75;;;;;;;;;;5127829;27;20023;-72
2022/01/10 12:25:54;;;;;;;8.85;7.95;;;;;;;;;;5127913;27;20015;-72
2022/01/10 12:28:19;;;;;;;5.68;4.93;;;;;;;;;;5127839;27;20051;-73
2022/01/10 12:30:45;;;;;;;4.82;3.42;;;;;;;;;;5127072;27;20159;-73
2022/01/10 12:33:10;;;;;;;12.30;4.15;;;;;;;;;;5127729;27;20023;-73
2022/01/10 12:35:36;;;;;;;8.15;5.22;;;;;;;;;;5126804;27;20016;-73
2022/01/10 12:38:02;;;;;;;23.33;18.30;;;;;;;;;;5126613;27;20098;-73
2022/01/10 12:40:31;;;;;;;28.83;21.25;;;;;;;;;;5126813;27;20419;-74
2022/01/10 12:42:57;;;;;;;85.35;62.97;;;;;;;;;;5127332;27;20544;-73
2022/01/10 12:45:23;;;;;;;66.53;48.45;;;;;;;;;;5127927;27;20102;-73
2022/01/10 12:47:48;;;;;;;13.65;9.90;;;;;;;;;;5127393;27;20222;-72
2022/01/10 12:50:13;;;;;;;14.55;8.10;;;;;;;;;;5125220;27;20015;-73
2022/01/10 12:52:40;;;;;;;5.80;3.83;;;;;;;;;;5127349;27;20026;-72
2022/01/10 12:55:05;;;;;;;3.50;2.45;;;;;;;;;;5127497;27;20027;-73
2022/01/10 12:57:31;;;;;;;5.50;3.42;;;;;;;;;;5125051;27;20026;-73
2022/01/10 12:59:58;;;;;;;5.28;3.30;;;;;;;;;;5108153;27;20027;-73
2022/01/10 13:02:24;;;;;;;6.50;4.97;;;;;;;;;;5124791;27;20587;-73
2022/01/10 13:04:50;;;;;;;11.80;8.18;;;;;;;;;;5127049;27;20501;-72
2022/01/10 13:07:16;;;;;;;13.30;6.13;;;;;;;;;;5127076;27;20033;-73
2022/01/10 13:09:43;;;;;;;19.65;13.73;;;;;;;;;;5127529;27;20023;-73
2022/01/10 13:15:09;;;;;;;11.85;6.35;;;;;;;;;;5108814;27;20019;-72
2022/01/10 13:17:35;;;;;;;4.85;3.58;;;;;;;;;;5125096;27;20015;-73
2022/01/10 13:20:05;;;;;;;5.93;3.55;;;;;;;;;;5126554;27;20593;-73
2022/01/10 13:22:33;;;;;;;5.47;2.97;;;;;;;;;;5126667;27;20051;-73
2022/01/10 13:24:59;;;;;;;2.60;1.45;;;;;;;;;;5107144;27;20030;-73
2022/01/10 13:27:32;;;;;;;5.03;3.63;;;;;;;;;;5125668;27;20023;-73
2022/01/10 13:29:58;;;;;;;6.07;3.50;;;;;;;;;;5125044;27;20045;-73
2022/01/10 13:32:36;;;;;;;6.43;5.82;;;;;;;;;;5126960;27;20050;-73
2022/01/10 13:35:02;;;;;;;9.70;5.65;;;;;;;;;;5124921;27;20015;-73
2022/01/10 13:37:32;;;;;;;13.07;5.80;;;;;;;;;;5127086;27;20026;-73
2022/01/10 13:40:00;;;;;;;7.35;4.15;;;;;;;;;;5126319;27;20777;-73
2022/01/10 13:42:26;;;;;;;23.95;11.70;;;;;;;;;;5126327;28;20031;-72
2022/01/10 13:45:00;;;;;;;10.98;6.78;;;;;;;;;;5125994;28;20030;-73
2022/01/10 13:47:26;;;;;;;5.10;4.40;;;;;;;;;;5126444;28;20448;-73
2022/01/10 13:49:51;;;;;;;4.95;3.42;;;;;;;;;;5126261;28;20019;-73
2022/01/10 13:52:17;;;;;;;4.55;3.58;;;;;;;;;;5126047;28;20432;-73
2022/01/10 13:54:43;;;;;;;9.48;6.78;;;;;;;;;;5107888;28;20027;-73
2022/01/10 13:57:15;;;;;;;11.98;9.85;;;;;;;;;;5126881;28;20024;-73
2022/01/10 13:59:41;;;;;;;16.83;9.23;;;;;;;;;;5126902;28;20019;-73
2022/01/10 14:02:06;;;;;;;11.52;8.00;;;;;;;;;;5128248;27;20107;-72
2022/01/10 14:04:34;;;;;;;8.30;7.13;;;;;;;;;;5129985;27;20526;-73
2022/01/10 14:07:00;;;;;;;6.47;5.20;;;;;;;;;;5128773;27;20582;-73
2022/01/10 14:09:29;;;;;;;5.72;4.80;;;;;;;;;;5127565;27;20046;-73
2022/01/10 14:11:54;;;;;;;6.28;4.40;;;;;;;;;;5130440;27;20015;-73
2022/01/10 14:14:19;;;;;;;5.85;4.40;;;;;;;;;;5130813;27;20542;-73
2022/01/10 14:16:49;;;;;;;8.32;5.35;;;;;;;;;;5130288;27;20467;-73
2022/01/10 14:19:15;;;;;;;7.22;3.95;;;;;;;;;;5129597;27;20026;-73
2022/01/10 14:21:40;;;;;;;2.38;1.75;;;;;;;;;;5130368;27;20436;-72
2022/01/10 14:24:06;;;;;;;16.17;5.50;;;;;;;;;;5129906;27;20019;-73
2022/01/10 14:26:32;;;;;;;5.13;2.60;;;;;;;;;;5130410;27;20023;-73
2022/01/10 14:28:58;;;;;;;10.50;6.53;;;;;;;;;;5128526;27;20092;-73
2022/01/10 14:31:24;;;;;;;8.43;7.53;;;;;;;;;;5130627;27;20023;-73
2022/01/10 14:33:50;;;;;;;13.05;6.68;;;;;;;;;;5130400;27;20015;-73
2022/01/10 14:36:15;;;;;;;5.95;4.55;;;;;;;;;;5128684;27;20074;-73
2022/01/10 14:38:41;;;;;;;19.60;6.65;;;;;;;;;;5130201;27;20539;-73
2022/01/10 14:41:06;;;;;;;10.07;4.43;;;;;;;;;;5130758;27;20721;-73